Cleverdale, NY (12820)

11:40 PM EDT on June 01, 2015 (GMT -0400)
APRSWXNET | | Change Station
CLOSE
Current Station
Personal Weather Station
Location: Rockhurst, NY
Elevation: 295 ft
Nearby Weather Stations

Elev 295 ft 43.47 °N, 73.64 °W | Updated 36 minutes ago

Overcast
Overcast
48 °F
Feels Like 48 °F
N
0
Wind Variable Wind from East
Gusts 2.0 mph

Today
High -- | Low -- °F
--% Chance of Precip.
Yesterday
High -- | Low -- °F
Precip. -- in
5:16 AM 8:28 PM
Full, 100% visible
Pressure 30.23 in
Visibility 4.0 miles
Clouds Overcast 2600 ft
Windchill 48 °F
Dew Point 47 °F
Humidity 96%
Rainfall in
Snow Depth Not available.
UV 0 out of 12
Pollen 1.00 out of 12
Air Quality Not available.
Flu Activity Sporadic
METAR KGFL 020253Z AUTO 04006KT 4SM -RA BR OVC026 09/08 A3021 RMK AO2 RAB19 SLP235 P0001 60001 T00940078 51008

More Conditions Fewer Conditions

Pressure 30.23 in
Visibility 4.0 miles
Clouds Overcast 2600 ft
Windchill 48 °F
Dew Point 47 °F
Humidity 96%
Rainfall in
Snow Depth Not available.
UV 0 out of 12
Pollen 1.00 out of 12
Air Quality Not available.
Flu Activity Sporadic
METAR KGFL 020253Z AUTO 04006KT 4SM -RA BR OVC026 09/08 A3021 RMK AO2 RAB19 SLP235 P0001 60001 T00940078 51008

More Conditions Fewer Conditions

10-Day Weather Forecast

Almanac

Astronomy

Jun. 01, 2015 Rise Set
Actual Time
Civil Twilight
Nautical Twilight
Astronomical Twilight
Moon
Length of Visible Light
Length of Day
Tomorrow will be .
, % of the Moon is Illuminated

Today's Extremes

State Highs State Lows

Community

WunderPhotos

Upload Photos

1,825,883 photos uploaded!

WunderBlogs® & News

Nearby

Air Quality

  Air Quality AQ Index Pollutant
Not available.

Snow Depth

Station Depth Elevation

Earthquake Activity

City Distance Mag. Time & Date
Minimum magnitude displayed is 2.5.

Coastal Water Temperatures

Place Temperature

Stations

Nearby Weather Stations

Station Location Temp. Windchill Dew Point Humidity Wind Precip. Elev Updated Type